createdAt,value
2022-11-17T00:01:30.441Z,98810.84
2022-11-17T00:04:33.295Z,98814.10
2022-11-17T00:07:36.211Z,98806.59
2022-11-17T00:10:39.694Z,98798.14
2022-11-17T00:14:01.541Z,98795.21
2022-11-17T00:17:08.787Z,98795.66
2022-11-17T00:20:30.615Z,98793.94
2022-11-17T00:27:43.098Z,98784.66
2022-11-17T00:31:04.884Z,98786.89
2022-11-17T00:34:08.653Z,98795.14
2022-11-17T00:37:15.358Z,98791.91
2022-11-17T00:40:18.153Z,98787.77
2022-11-17T00:43:38.758Z,98792.52
2022-11-17T00:46:43.199Z,98790.26
2022-11-17T00:49:48.224Z,98788.55
2022-11-17T00:52:54.047Z,98776.95
2022-11-17T00:55:57.159Z,98782.14
2022-11-17T00:59:02.199Z,98780.13
2022-11-17T01:02:05.001Z,98783.31
2022-11-17T01:05:08.162Z,98778.35
2022-11-17T01:08:13.418Z,98776.01
2022-11-17T01:11:18.774Z,98776.44
2022-11-17T01:14:27.135Z,98776.93
2022-11-17T01:17:30.001Z,98781.27
2022-11-17T01:20:34.525Z,98779.09
2022-11-17T01:23:43.389Z,98781.49
2022-11-17T01:26:46.711Z,98774.60
2022-11-17T01:29:49.554Z,98771.03
2022-11-17T01:32:52.365Z,98766.30
2022-11-17T01:35:55.890Z,98760.42
2022-11-17T01:38:58.713Z,98760.27
2022-11-17T01:42:14.275Z,98762.63
2022-11-17T01:45:22.336Z,98760.83
2022-11-17T01:48:25.192Z,98756.23
2022-11-17T01:51:31.405Z,98754.54
2022-11-17T01:54:40.620Z,98753.08
2022-11-17T01:57:49.875Z,98746.56
2022-11-17T02:00:55.521Z,98741.48
2022-11-17T02:03:58.536Z,98740.92
2022-11-17T02:07:15.885Z,98742.26
2022-11-17T02:10:18.964Z,98738.73
2022-11-17T02:13:22.937Z,98733.89
2022-11-17T02:16:25.731Z,98733.86
2022-11-17T02:19:35.650Z,98731.77
2022-11-17T02:22:44.566Z,98726.21
2022-11-17T02:26:20.140Z,98725.05
2022-11-17T02:29:48.512Z,98723.29
2022-11-17T02:33:06.518Z,98729.30
2022-11-17T02:36:41.734Z,98730.92
2022-11-17T02:39:55.908Z,98732.20
2022-11-17T02:43:20.257Z,98733.55
2022-11-17T02:47:14.441Z,98730.52
2022-11-17T02:50:24.021Z,98725.10
2022-11-17T02:53:30.833Z,98725.52
2022-11-17T02:56:33.752Z,98722.98
2022-11-17T02:59:43.499Z,98722.69
2022-11-17T03:03:10.610Z,98727.83
2022-11-17T03:06:46.002Z,98724.66
2022-11-17T03:10:09.013Z,98726.45
2022-11-17T03:13:24.912Z,98728.95
2022-11-17T03:16:36.245Z,98723.80
2022-11-17T03:19:46.819Z,98722.22
2022-11-17T03:22:57.481Z,98723.04
2022-11-17T03:26:02.826Z,98726.56
2022-11-17T03:29:09.107Z,98723.30
2022-11-17T03:32:15.043Z,98719.02
2022-11-17T03:35:25.516Z,98725.08
2022-11-17T03:38:34.260Z,98723.98
2022-11-17T03:41:42.408Z,98715.81
2022-11-17T03:44:51.337Z,98706.09
2022-11-17T03:48:19.311Z,98707.65
2022-11-17T03:51:26.873Z,98707.11
2022-11-17T03:54:30.181Z,98706.38
2022-11-17T03:57:34.572Z,98710.40
2022-11-17T04:00:40.565Z,98711.67
2022-11-17T04:03:43.417Z,98708.17
2022-11-17T04:06:46.719Z,98704.23
2022-11-17T04:09:49.508Z,98705.34
2022-11-17T04:13:12.822Z,98703.63
2022-11-17T04:16:15.615Z,98698.39
2022-11-17T04:19:18.472Z,98702.14
2022-11-17T04:22:22.874Z,98698.91
2022-11-17T04:25:45.603Z,98700.44
2022-11-17T04:28:50.689Z,98706.40
2022-11-17T04:31:59.784Z,98705.02
2022-11-17T04:35:02.690Z,98711.20
2022-11-17T04:38:05.466Z,98707.31
2022-11-17T04:41:29.137Z,98710.14
2022-11-17T04:44:32.726Z,98703.52
2022-11-17T04:47:35.506Z,98700.10
2022-11-17T04:50:38.296Z,98700.87
2022-11-17T04:53:42.114Z,98705.58
2022-11-17T04:56:45.781Z,98705.96
2022-11-17T04:59:48.655Z,98711.80
2022-11-17T05:02:51.528Z,98711.65
2022-11-17T05:05:54.423Z,98711.44
2022-11-17T05:09:25.563Z,98711.34
2022-11-17T05:12:47.255Z,98709.48
2022-11-17T05:16:13.131Z,98707.77
2022-11-17T05:19:20.903Z,98705.71
2022-11-17T05:22:43.057Z,98703.31
2022-11-17T05:26:13.886Z,98701.38
2022-11-17T05:29:24.936Z,98695.51
2022-11-17T05:32:27.846Z,98694.40
2022-11-17T05:35:30.719Z,98696.88
2022-11-17T05:38:33.792Z,98699.45
2022-11-17T05:41:37.386Z,98699.48
2022-11-17T05:44:40.311Z,98698.36
2022-11-17T05:47:43.112Z,98704.86
2022-11-17T05:51:10.965Z,98702.23
2022-11-17T05:54:52.646Z,98700.23
2022-11-17T05:57:59.251Z,98696.70
2022-11-17T06:01:04.154Z,98688.95
2022-11-17T06:04:08.726Z,98695.04
2022-11-17T06:07:11.877Z,98686.85
2022-11-17T06:10:14.859Z,98702.28
2022-11-17T06:13:20.255Z,98701.75
2022-11-17T06:16:27.369Z,98700.95
2022-11-17T06:19:44.515Z,98704.01
2022-11-17T06:22:48.874Z,98697.23
2022-11-17T06:25:51.931Z,98696.88
2022-11-17T06:28:56.092Z,98694.33
2022-11-17T06:31:59.617Z,98691.73
2022-11-17T06:35:06.403Z,98688.98
2022-11-17T06:38:09.375Z,98691.09
2022-11-17T06:41:13.715Z,98691.98
2022-11-17T06:44:19.859Z,98691.64
2022-11-17T06:47:23.096Z,98693.71
2022-11-17T06:50:26.411Z,98697.77
2022-11-17T06:53:29.471Z,98693.52
2022-11-17T06:56:32.434Z,98696.02
2022-11-17T06:59:35.289Z,98690.90
2022-11-17T07:02:38.169Z,98693.79
2022-11-17T07:05:41.145Z,98694.70
2022-11-17T07:08:45.744Z,98692.66
2022-11-17T07:11:48.670Z,98688.70
2022-11-17T07:14:52.187Z,98685.15
2022-11-17T07:18:37.105Z,98681.09
2022-11-17T07:21:40.383Z,98682.86
2022-11-17T07:24:43.249Z,98679.39
2022-11-17T07:27:46.287Z,98675.48
2022-11-17T07:30:51.632Z,98674.73
2022-11-17T07:33:54.917Z,98673.69
2022-11-17T07:36:58.679Z,98669.67
2022-11-17T07:40:01.695Z,98669.71
2022-11-17T07:43:04.979Z,98673.98
2022-11-17T07:46:13.605Z,98681.58
2022-11-17T07:49:24.780Z,98680.09
2022-11-17T07:52:27.803Z,98689.98
2022-11-17T07:55:30.803Z,98693.21
2022-11-17T07:58:34.471Z,98689.42
2022-11-17T08:01:37.906Z,98682.10
2022-11-17T08:04:40.900Z,98677.09
2022-11-17T08:07:55.051Z,98668.57
2022-11-17T08:11:09.373Z,98670.77
2022-11-17T08:14:12.356Z,98668.46
2022-11-17T08:17:15.492Z,98667.12
2022-11-17T08:20:18.490Z,98669.39
2022-11-17T08:23:21.413Z,98668.98
2022-11-17T08:26:25.776Z,98665.92
2022-11-17T08:29:29.756Z,98668.73
2022-11-17T08:32:32.728Z,98667.30
2022-11-17T08:35:37.591Z,98670.61
2022-11-17T08:38:40.925Z,98674.34
2022-11-17T08:41:43.844Z,98673.05
2022-11-17T08:44:46.867Z,98680.27
2022-11-17T08:47:57.169Z,98676.73
2022-11-17T08:51:05.652Z,98678.91
2022-11-17T08:54:12.331Z,98683.86
2022-11-17T09:02:05.605Z,98686.38
2022-11-17T09:05:09.114Z,98688.98
2022-11-17T09:08:43.937Z,98685.45
2022-11-17T09:11:36.828Z,98682.56
2022-11-17T09:14:39.882Z,98686.61
2022-11-17T09:17:47.851Z,98689.27
2022-11-17T09:20:50.814Z,98693.31
2022-11-17T09:23:54.776Z,98684.44
2022-11-17T09:26:57.943Z,98684.79
2022-11-17T09:30:01.320Z,98682.39
2022-11-17T09:33:06.304Z,98682.66
2022-11-17T09:36:12.822Z,98676.69
2022-11-17T09:39:16.225Z,98682.65
2022-11-17T09:42:20.007Z,98680.75
2022-11-17T09:45:30.911Z,98683.77
2022-11-17T09:48:44.352Z,98680.95
2022-11-17T09:51:50.017Z,98679.50
2022-11-17T09:54:58.285Z,98672.13
2022-11-17T09:58:18.141Z,98672.98
2022-11-17T10:01:50.324Z,98669.79
2022-11-17T10:04:53.752Z,98665.19
2022-11-17T10:08:00.938Z,98662.03
2022-11-17T10:11:24.154Z,98662.70
2022-11-17T10:14:28.439Z,98662.40
2022-11-17T10:17:32.859Z,98659.98
2022-11-17T10:21:45.087Z,98662.73
2022-11-17T10:24:50.993Z,98669.11
2022-11-17T10:27:54.417Z,98667.95
2022-11-17T10:31:00.897Z,98650.69
2022-11-17T10:34:03.840Z,98660.34
2022-11-17T10:37:24.962Z,98660.58
2022-11-17T10:40:39.264Z,98657.83
2022-11-17T10:43:56.058Z,98661.74
2022-11-17T10:47:08.365Z,98662.54
2022-11-17T10:50:22.801Z,98659.14
2022-11-17T10:53:35.916Z,98659.58
2022-11-17T10:56:49.868Z,98654.65
2022-11-17T10:59:57.874Z,98652.20
2022-11-17T11:03:04.182Z,98652.70
2022-11-17T11:06:33.238Z,98657.48
2022-11-17T11:09:41.664Z,98660.17
2022-11-17T11:13:13.296Z,98666.27
2022-11-17T11:16:36.267Z,98670.13
2022-11-17T11:19:41.753Z,98662.14
2022-11-17T11:23:53.222Z,98661.09
2022-11-17T11:27:01.992Z,98659.47
2022-11-17T11:30:10.095Z,98658.54
2022-11-17T11:33:26.105Z,98656.35
2022-11-17T11:36:56.784Z,98650.47
2022-11-17T11:40:15.946Z,98656.32
2022-11-17T11:43:32.407Z,98653.33
2022-11-17T11:46:42.842Z,98657.00
2022-11-17T11:50:01.123Z,98660.98
2022-11-17T11:53:13.571Z,98661.43
2022-11-17T11:56:25.809Z,98655.67
2022-11-17T11:59:34.955Z,98658.30
2022-11-17T12:02:59.670Z,98658.73
2022-11-17T12:06:29.768Z,98659.29
2022-11-17T12:09:41.839Z,98657.66
2022-11-17T12:12:46.564Z,98653.25
2022-11-17T12:15:49.759Z,98654.29
2022-11-17T12:18:52.753Z,98633.17
2022-11-17T12:21:56.972Z,98647.20
2022-11-17T12:25:22.439Z,98645.79
2022-11-17T12:28:39.304Z,98639.84
2022-11-17T12:31:45.196Z,98640.29
2022-11-17T12:35:26.542Z,98637.30
2022-11-17T12:38:29.415Z,98634.68
2022-11-17T12:41:54.489Z,98633.77
2022-11-17T12:46:09.068Z,98631.56
2022-11-17T12:49:48.616Z,98626.57
2022-11-17T12:53:09.813Z,98622.21
2022-11-17T12:56:20.105Z,98615.90
2022-11-17T13:00:05.595Z,98609.30
2022-11-17T13:03:15.523Z,98601.80
2022-11-17T13:06:36.386Z,98597.26
2022-11-17T13:09:59.107Z,98592.30
2022-11-17T13:13:20.174Z,98594.26
2022-11-17T13:16:23.052Z,98588.20
2022-11-17T13:19:40.522Z,98585.79
2022-11-17T13:22:43.496Z,98579.11
2022-11-17T13:25:46.376Z,98580.09
2022-11-17T13:29:10.411Z,98568.47
2022-11-17T13:32:28.621Z,98573.46
2022-11-17T13:35:34.887Z,98572.71
2022-11-17T13:38:50.596Z,98580.58
2022-11-17T13:42:02.651Z,98575.91
2022-11-17T13:45:06.292Z,98573.59
2022-11-17T13:48:35.179Z,98572.68
2022-11-17T13:51:42.277Z,98574.96
2022-11-17T13:54:49.905Z,98580.27
2022-11-17T13:58:03.345Z,98578.95
2022-11-17T14:01:23.590Z,98584.60
2022-11-17T14:04:28.552Z,98566.96
2022-11-17T14:07:35.301Z,98572.92
2022-11-17T14:10:39.450Z,98580.63
2022-11-17T14:13:48.344Z,98582.23
2022-11-17T14:16:52.168Z,98589.94
2022-11-17T14:19:55.281Z,98590.48
2022-11-17T14:23:13.619Z,98588.42
2022-11-17T14:26:24.871Z,98587.77
2022-11-17T14:29:53.605Z,98587.72
2022-11-17T14:33:05.372Z,98589.80
2022-11-17T14:36:14.903Z,98597.11
2022-11-17T14:39:20.647Z,98596.94
2022-11-17T14:42:24.133Z,98596.02
2022-11-17T14:45:27.213Z,98596.23
2022-11-17T14:48:31.392Z,98599.24
2022-11-17T14:51:35.565Z,98598.23
2022-11-17T14:54:38.561Z,98605.55
2022-11-17T14:57:45.245Z,98608.03
2022-11-17T15:00:48.381Z,98609.39
2022-11-17T15:03:53.127Z,98614.93
2022-11-17T15:06:57.469Z,98613.95
2022-11-17T15:10:00.616Z,98599.23
2022-11-17T15:13:03.690Z,98610.64
2022-11-17T15:16:07.004Z,98606.80
2022-11-17T15:19:10.062Z,98602.39
2022-11-17T15:22:16.679Z,98603.16
2022-11-17T15:25:19.768Z,98608.58
2022-11-17T15:28:24.069Z,98607.28
2022-11-17T15:31:30.042Z,98612.41
2022-11-17T15:34:32.991Z,98609.23
2022-11-17T15:37:40.522Z,98604.03
2022-11-17T15:40:43.678Z,98605.11
2022-11-17T15:43:46.762Z,98597.95
2022-11-17T15:46:52.667Z,98599.02
2022-11-17T15:49:59.490Z,98598.45
2022-11-17T15:53:05.764Z,98599.56
2022-11-17T15:56:21.846Z,98595.24
2022-11-17T15:59:25.002Z,98598.15
2022-11-17T16:02:28.052Z,98598.09
2022-11-17T16:06:00.850Z,98595.38
2022-11-17T16:09:06.730Z,98592.36
2022-11-17T16:12:09.664Z,98598.89
2022-11-17T16:15:39.397Z,98600.85
2022-11-17T16:18:42.426Z,98598.77
2022-11-17T16:21:45.684Z,98594.93
2022-11-17T16:24:48.655Z,98594.70
2022-11-17T16:27:51.688Z,98597.95
2022-11-17T16:30:54.566Z,98597.86
2022-11-17T16:34:00.124Z,98599.52
2022-11-17T16:37:34.457Z,98599.39
2022-11-17T16:40:39.662Z,98601.02
2022-11-17T16:43:44.669Z,98599.66
2022-11-17T16:46:53.365Z,98599.86
2022-11-17T16:49:56.344Z,98592.96
2022-11-17T16:53:00.751Z,98595.25
2022-11-17T16:56:09.001Z,98598.54
2022-11-17T16:59:12.745Z,98604.16
2022-11-17T17:02:17.762Z,98600.79
2022-11-17T17:05:21.170Z,98595.34
2022-11-17T17:08:24.305Z,98584.55
2022-11-17T17:11:53.632Z,98583.58
2022-11-17T17:15:24.896Z,98588.14
2022-11-17T17:24:39.556Z,98589.41
2022-11-17T17:27:20.011Z,98591.35
2022-11-17T17:29:04.541Z,98585.20
2022-11-17T17:32:08.126Z,98585.44
2022-11-17T17:34:37.675Z,98581.70
2022-11-17T17:37:49.489Z,98577.45
2022-11-17T17:40:54.413Z,98578.42
2022-11-17T17:44:00.320Z,98577.02
2022-11-17T17:47:05.062Z,98576.95
2022-11-17T17:50:08.425Z,98575.78
2022-11-17T17:53:11.555Z,98580.13
2022-11-17T17:56:15.879Z,98581.33
2022-11-17T17:59:19.416Z,98584.09
2022-11-17T18:02:24.348Z,98588.15
2022-11-17T18:05:28.091Z,98588.27
2022-11-17T18:08:35.274Z,98591.66
2022-11-17T18:11:45.906Z,98586.05
2022-11-17T18:14:48.992Z,98586.50
2022-11-17T18:17:51.945Z,98587.42
2022-11-17T18:21:09.883Z,98586.72
2022-11-17T18:24:13.316Z,98589.15
2022-11-17T18:27:16.377Z,98590.92
2022-11-17T18:30:20.773Z,98594.04
2022-11-17T18:33:23.781Z,98579.70
2022-11-17T18:36:28.310Z,98594.94
2022-11-17T18:39:32.932Z,98595.10
2022-11-17T18:42:35.970Z,98594.17
2022-11-17T18:45:39.608Z,98591.39
2022-11-17T18:48:47.272Z,98594.63
2022-11-17T18:51:50.228Z,98593.72
2022-11-17T18:54:53.336Z,98591.45
2022-11-17T18:57:56.408Z,98585.15
2022-11-17T19:01:12.338Z,98588.36
2022-11-17T19:04:26.011Z,98587.42
2022-11-17T19:07:29.747Z,98584.08
2022-11-17T19:10:33.338Z,98581.19
2022-11-17T19:13:42.195Z,98581.01
2022-11-17T19:16:50.898Z,98581.15
2022-11-17T19:19:54.549Z,98578.70
2022-11-17T19:22:57.703Z,98585.37
2022-11-17T19:26:04.634Z,98581.93
2022-11-17T19:29:16.163Z,98583.31
2022-11-17T19:32:32.144Z,98584.09
2022-11-17T19:35:43.218Z,98582.65
2022-11-17T19:39:02.928Z,98578.44
2022-11-17T19:42:07.706Z,98581.11
2022-11-17T19:45:22.248Z,98585.16
2022-11-17T19:48:25.553Z,98579.98
2022-11-17T19:55:20.773Z,98577.76
2022-11-17T19:58:23.859Z,98581.33
2022-11-17T20:01:35.602Z,98581.54
2022-11-17T20:04:39.792Z,98579.09
2022-11-17T20:07:43.189Z,98580.02
2022-11-17T20:10:49.089Z,98578.40
2022-11-17T20:13:52.054Z,98577.11
2022-11-17T20:16:55.044Z,98570.34
2022-11-17T20:19:58.100Z,98564.18
2022-11-17T20:23:01.063Z,98568.92
2022-11-17T20:26:05.487Z,98565.83
2022-11-17T20:29:08.950Z,98564.83
2022-11-17T20:32:15.196Z,98568.05
2022-11-17T20:35:19.705Z,98565.34
2022-11-17T20:38:23.129Z,98564.80
2022-11-17T20:41:27.002Z,98564.48
2022-11-17T20:44:29.977Z,98562.74
2022-11-17T20:47:33.156Z,98564.85
2022-11-17T20:50:39.257Z,98559.75
2022-11-17T20:53:42.925Z,98557.70
2022-11-17T20:56:45.719Z,98550.26
2022-11-17T20:59:49.578Z,98548.04
2022-11-17T21:02:57.228Z,98545.04
2022-11-17T21:06:02.334Z,98545.49
2022-11-17T21:09:31.824Z,98546.13
2022-11-17T21:12:37.586Z,98553.52
2022-11-17T21:15:40.462Z,98558.83
2022-11-17T21:18:49.533Z,98552.27
2022-11-17T21:21:55.202Z,98550.31
2022-11-17T21:24:58.060Z,98553.02
2022-11-17T21:28:04.412Z,98551.77
2022-11-17T21:31:08.815Z,98546.58
2022-11-17T21:34:15.462Z,98543.40
2022-11-17T21:37:20.360Z,98548.27
2022-11-17T21:40:23.552Z,98555.30
2022-11-17T21:43:26.580Z,98547.94
2022-11-17T21:46:32.123Z,98548.64
2022-11-17T21:49:35.340Z,98546.31
2022-11-17T21:52:38.269Z,98545.27
2022-11-17T21:55:41.470Z,98541.89
2022-11-17T21:58:44.764Z,98538.77
2022-11-17T22:01:47.674Z,98539.98
2022-11-17T22:04:59.390Z,98542.05
2022-11-17T22:08:03.698Z,98538.08
2022-11-17T22:11:15.152Z,98536.04
2022-11-17T22:14:22.164Z,98535.05
2022-11-17T22:17:24.994Z,98538.98
2022-11-17T22:20:28.465Z,98541.20
2022-11-17T22:23:35.340Z,98539.69
2022-11-17T22:26:43.419Z,98545.38
2022-11-17T22:29:46.322Z,98550.05
2022-11-17T22:32:49.178Z,98551.70
2022-11-17T22:35:54.198Z,98558.29
2022-11-17T22:39:01.065Z,98561.83
2022-11-17T22:42:04.768Z,98557.77
2022-11-17T22:45:08.189Z,98560.09
2022-11-17T22:48:11.059Z,98568.88
2022-11-17T22:51:34.645Z,98570.52
2022-11-17T22:54:40.574Z,98570.21
2022-11-17T22:57:48.512Z,98571.60
2022-11-17T23:01:01.881Z,98573.36
2022-11-17T23:04:06.307Z,98572.88
2022-11-17T23:07:09.485Z,98574.94
2022-11-17T23:10:13.220Z,98573.73
2022-11-17T23:13:19.311Z,98578.52
2022-11-17T23:16:22.969Z,98571.05
2022-11-17T23:19:25.893Z,98566.90
2022-11-17T23:22:29.314Z,98562.70
2022-11-17T23:25:32.327Z,98566.36
2022-11-17T23:28:35.979Z,98563.39
2022-11-17T23:31:46.595Z,98558.50
2022-11-17T23:34:51.587Z,98556.38
2022-11-17T23:37:54.661Z,98563.28
2022-11-17T23:41:06.736Z,98578.72
2022-11-17T23:44:09.666Z,98581.71
2022-11-17T23:47:12.593Z,98580.63
2022-11-17T23:50:15.556Z,98578.58
2022-11-17T23:53:18.349Z,98575.63
2022-11-17T23:56:22.870Z,98573.85
2022-11-17T23:59:25.777Z,98573.26
